Time;durP1;ratioP1;P1;durP2;ratioP2;P2;SDS_P1;SDS_P2;PMS_P1;PMS_P2;Temp;Humidity;BMP_temperature;BMP_pressure;BME280_temperature;BME280_humidity;BME280_pressure;Samples;Min_cycle;Max_cycle;Signal;HPM_P1;HPM_P2
2023/06/27 00:01:49;;;;;;;4.05;1.85;;;;;;;15.47;91.90;98745.25;4188188;28;20059;-73
2023/06/27 00:03:51;;;;;;;3.25;1.60;;;;;;;15.37;92.52;98751.66;4189572;28;20032;-73
2023/06/27 00:05:52;;;;;;;2.97;1.85;;;;;;;15.31;93.07;98747.72;4188379;28;20047;-73
2023/06/27 00:07:52;;;;;;;4.50;1.60;;;;;;;15.21;93.85;98740.97;4176002;28;20037;-73
2023/06/27 00:09:52;;;;;;;2.65;1.50;;;;;;;15.20;93.88;98749.72;4190735;28;20137;-73
2023/06/27 00:11:53;;;;;;;2.92;1.63;;;;;;;15.15;94.67;98756.53;4189560;28;20052;-73
2023/06/27 00:13:53;;;;;;;3.33;1.60;;;;;;;15.03;95.33;98757.72;4189613;28;20063;-73
2023/06/27 00:15:53;;;;;;;1.98;1.70;;;;;;;15.07;95.05;98757.75;4180925;28;20929;-73
2023/06/27 00:17:55;;;;;;;1.95;1.48;;;;;;;15.00;95.80;98760.53;4189360;28;20036;-73
2023/06/27 00:19:57;;;;;;;3.72;1.70;;;;;;;15.02;95.30;98761.72;4175044;28;20045;-73
2023/06/27 00:21:58;;;;;;;;;;;;;;;14.97;95.96;98766.88;4178035;28;20056;-73
2023/06/27 00:24:01;;;;;;;2.63;1.65;;;;;;;14.97;95.65;98766.88;4174977;28;20384;-73
2023/06/27 00:26:03;;;;;;;3.25;1.70;;;;;;;14.94;96.10;98770.50;4176475;28;20055;-73
2023/06/27 00:28:03;;;;;;;3.20;1.90;;;;;;;14.86;96.18;98770.50;4173372;28;20040;-73
2023/06/27 00:30:04;;;;;;;3.75;1.60;;;;;;;14.76;96.82;98771.31;4174975;28;20063;-73
2023/06/27 00:32:05;;;;;;;3.38;1.63;;;;;;;14.74;96.49;98776.47;4182272;28;20028;-73
2023/06/27 00:34:06;;;;;;;3.33;1.90;;;;;;;14.65;97.30;98769.72;4184674;28;20029;-73
2023/06/27 00:36:06;;;;;;;5.82;1.90;;;;;;;14.58;98.43;98785.22;4179447;28;20068;-73
2023/06/27 00:38:07;;;;;;;6.35;2.42;;;;;;;14.48;98.15;98772.13;4176005;28;20495;-73
2023/06/27 00:40:08;;;;;;;3.90;2.03;;;;;;;14.46;97.92;98782.03;4175848;28;20017;-73
2023/06/27 00:42:08;;;;;;;2.47;1.48;;;;;;;14.40;98.14;98772.44;4178947;28;20102;-73
2023/06/27 00:44:09;;;;;;;3.90;1.80;;;;;;;14.29;99.26;98787.16;4179152;28;20420;-73
2023/06/27 00:46:10;;;;;;;1.70;1.33;;;;;;;14.27;99.13;98785.97;4179538;28;20116;-73
2023/06/27 00:48:13;;;;;;;5.77;2.07;;;;;;;14.24;99.30;98776.44;4174932;28;20037;-73
2023/06/27 00:50:14;;;;;;;2.97;1.50;;;;;;;14.20;99.44;98783.16;4182565;28;20372;-73
2023/06/27 00:52:14;;;;;;;4.57;1.90;;;;;;;14.13;100.00;98789.50;4174445;28;20308;-73
2023/06/27 00:54:16;;;;;;;3.42;1.50;;;;;;;14.09;100.00;98780.38;4173930;28;20031;-73
2023/06/27 00:56:16;;;;;;;3.17;1.63;;;;;;;14.08;100.00;98784.34;4184665;28;20041;-73
2023/06/27 00:58:18;;;;;;;7.53;1.80;;;;;;;14.05;100.00;98785.13;4186624;28;20031;-73
2023/06/27 01:00:19;;;;;;;2.90;1.40;;;;;;;14.03;100.00;98790.28;4180420;28;20329;-73
2023/06/27 01:02:23;;;;;;;3.53;1.90;;;;;;;13.99;100.00;98786.72;4187023;28;20035;-73
2023/06/27 01:04:24;;;;;;;3.22;1.45;;;;;;;13.92;100.00;98781.13;4173998;28;20072;-73
2023/06/27 01:06:33;;;;;;;1.90;1.60;;;;;;;13.85;100.00;98786.66;4175519;28;20049;-73
2023/06/27 01:08:42;;;;;;;2.13;1.50;;;;;;;13.85;100.00;98789.44;4176570;28;20414;-73
2023/06/27 01:11:05;;;;;;;3.67;2.03;;;;;;;13.78;100.00;98795.75;4176783;28;20045;-73
2023/06/27 01:13:10;;;;;;;;;;;;;;;13.72;100.00;98792.56;4184238;28;20819;-73
2023/06/27 01:15:11;;;;;;;2.25;1.60;;;;;;;13.66;100.00;98785.00;4177640;28;19917;-73
2023/06/27 01:17:13;;;;;;;3.63;1.52;;;;;;;13.66;100.00;98790.56;4174499;28;20392;-72
2023/06/27 01:19:19;;;;;;;4.95;1.60;;;;;;;13.74;100.00;98786.63;4182194;28;20241;-73
2023/06/27 01:21:23;;;;;;;4.88;1.35;;;;;;;13.67;100.00;98781.03;4187850;28;20036;-73
2023/06/27 01:23:39;;;;;;;5.05;1.52;;;;;;;13.63;100.00;98786.56;4175300;28;20386;-73
2023/06/27 01:25:40;;;;;;;2.33;1.23;;;;;;;13.60;100.00;98790.13;4180183;28;20051;-73
2023/06/27 01:27:40;;;;;;;3.03;1.38;;;;;;;13.63;100.00;98792.13;4181508;28;20045;-73
2023/06/27 01:29:41;;;;;;;4.32;1.70;;;;;;;13.62;100.00;98792.53;4175699;28;20093;-73
2023/06/27 01:31:56;;;;;;;2.65;1.45;;;;;;;13.65;100.00;98795.34;4176561;28;20497;-72
2023/06/27 01:34:06;;;;;;;2.58;1.52;;;;;;;13.75;99.88;98793.78;4173322;28;20052;-73
2023/06/27 01:36:26;;;;;;;3.78;1.60;;;;;;;13.78;99.24;98801.31;4177546;28;20506;-73
2023/06/27 01:38:37;;;;;;;5.97;1.77;;;;;;;13.85;99.39;98800.56;4173633;28;20119;-72
2023/06/27 01:40:39;;;;;;;6.28;1.63;;;;;;;13.81;98.86;98803.31;4172933;28;20037;-72
2023/06/27 01:42:46;;;;;;;2.47;1.60;;;;;;;13.83;99.30;98798.19;4177673;28;20033;-73
2023/06/27 01:44:49;;;;;;;3.13;1.80;;;;;;;13.81;99.96;98800.53;4174041;28;20063;-73
2023/06/27 01:46:52;;;;;;;3.03;1.45;;;;;;;13.76;99.99;98793.38;4188799;28;20516;-72
2023/06/27 01:48:55;;;;;;;3.70;1.42;;;;;;;13.71;100.00;98804.06;4182149;28;20088;-72
2023/06/27 01:50:55;;;;;;;2.30;1.50;;;;;;;13.61;100.00;98804.84;4173548;28;20036;-73
2023/06/27 01:52:56;;;;;;;2.38;1.58;;;;;;;13.55;100.00;98809.97;4173260;28;20381;-72
2023/06/27 01:54:56;;;;;;;2.78;1.60;;;;;;;13.56;100.00;98805.19;4173897;28;20072;-72
2023/06/27 01:56:56;;;;;;;3.72;1.40;;;;;;;13.60;100.00;98812.38;4189473;28;20044;-72
2023/06/27 01:58:57;;;;;;;4.40;1.65;;;;;;;13.55;100.00;98798.84;4188472;28;20068;-72
2023/06/27 02:00:57;;;;;;;3.97;1.63;;;;;;;13.48;100.00;98805.16;4184534;28;20280;-72
2023/06/27 02:02:57;;;;;;;3.10;1.50;;;;;;;13.39;100.00;98813.06;4172875;28;20131;-73
2023/06/27 02:04:58;;;;;;;3.05;1.77;;;;;;;13.35;100.00;98801.13;4184495;28;20072;-72
2023/06/27 02:06:58;;;;;;;4.32;1.90;;;;;;;13.32;100.00;98809.44;4186893;28;20076;-72
2023/06/27 02:08:58;;;;;;;2.75;1.50;;;;;;;13.23;100.00;98812.56;4188308;28;20136;-72
2023/06/27 02:10:58;;;;;;;2.95;1.67;;;;;;;13.16;100.00;98807.75;4188325;28;20044;-72
2023/06/27 02:13:01;;;;;;;2.30;1.40;;;;;;;13.14;100.00;98806.53;4180611;28;20082;-72
2023/06/27 02:15:02;;;;;;;3.00;1.60;;;;;;;13.09;100.00;98809.69;4173704;28;20503;-72
2023/06/27 02:17:03;;;;;;;2.00;1.80;;;;;;;13.09;100.00;98806.91;4183406;28;20037;-73
2023/06/27 02:19:04;;;;;;;2.88;1.77;;;;;;;13.08;100.00;98808.09;4179312;28;20048;-73
2023/06/27 02:21:04;;;;;;;5.63;1.90;;;;;;;13.08;100.00;98810.88;4178514;28;20055;-72
2023/06/27 02:23:05;;;;;;;7.93;2.15;;;;;;;13.06;100.00;98807.66;4172624;28;20077;-72
2023/06/27 02:25:05;;;;;;;3.00;1.60;;;;;;;13.03;100.00;98806.47;4173088;28;20040;-73
2023/06/27 02:27:06;;;;;;;3.10;1.50;;;;;;;13.02;100.00;98815.97;4172561;28;20052;-72
2023/06/27 02:29:06;;;;;;;3.30;1.60;;;;;;;13.03;100.00;98820.34;4172277;28;20146;-72
2023/06/27 02:31:07;;;;;;;3.35;1.73;;;;;;;13.00;100.00;98814.78;4174424;28;20118;-72
2023/06/27 02:33:07;;;;;;;3.17;1.52;;;;;;;12.87;100.00;98806.75;4177897;28;20068;-72
2023/06/27 02:35:08;;;;;;;3.85;1.73;;;;;;;12.80;100.00;98806.69;4171418;28;20068;-72
2023/06/27 02:37:08;;;;;;;3.50;1.98;;;;;;;12.75;100.00;98809.84;4174471;28;20040;-72
2023/06/27 02:39:09;;;;;;;4.18;1.83;;;;;;;12.68;100.00;98809.78;4179208;28;20049;-73
2023/06/27 02:41:09;;;;;;;3.47;1.85;;;;;;;12.60;100.00;98816.44;4182925;28;20445;-72
2023/06/27 02:43:09;;;;;;;4.75;1.90;;;;;;;12.53;100.00;98811.63;4171786;28;20060;-72
2023/06/27 02:45:10;;;;;;;4.72;2.20;;;;;;;12.42;100.00;98815.50;4175077;28;20111;-72
2023/06/27 02:47:10;;;;;;;4.63;2.03;;;;;;;12.41;100.00;98813.88;4178096;28;20041;-72
2023/06/27 02:49:11;;;;;;;4.47;2.20;;;;;;;12.41;100.00;98817.44;4177651;28;20053;-72
2023/06/27 02:51:11;;;;;;;2.40;1.85;;;;;;;12.37;100.00;98813.84;4174153;28;20049;-72
2023/06/27 02:53:11;;;;;;;2.35;1.88;;;;;;;12.33;100.00;98813.81;4175514;28;20466;-72
2023/06/27 02:55:12;;;;;;;3.50;1.75;;;;;;;12.29;100.00;98814.94;4175859;28;20032;-72
2023/06/27 02:57:12;;;;;;;3.53;1.67;;;;;;;12.24;100.00;98816.09;4175041;28;20252;-72
2023/06/27 02:59:12;;;;;;;3.58;1.83;;;;;;;12.22;100.00;98817.66;4177421;28;20530;-72
2023/06/27 03:01:14;;;;;;;2.05;1.70;;;;;;;12.24;100.00;98821.63;4174589;28;20068;-72
2023/06/27 03:03:14;;;;;;;6.60;2.00;;;;;;;12.28;100.00;98816.94;4175800;28;20045;-72
2023/06/27 03:05:14;;;;;;;3.30;2.00;;;;;;;12.35;100.00;98819.00;4175858;28;20419;-72
2023/06/27 03:07:15;;;;;;;2.67;1.67;;;;;;;12.34;100.00;98818.19;4175340;28;20088;-72
2023/06/27 03:09:18;;;;;;;3.45;1.98;;;;;;;12.35;100.00;98816.22;4175827;28;20272;-72
2023/06/27 03:11:18;;;;;;;2.63;1.80;;;;;;;12.37;100.00;98817.41;4178419;28;20041;-72
2023/06/27 03:13:19;;;;;;;4.38;1.75;;;;;;;12.35;100.00;98821.75;4175296;28;20194;-72
2023/06/27 03:15:19;;;;;;;3.28;1.50;;;;;;;12.31;100.00;98820.91;4175183;28;20086;-72
2023/06/27 03:17:19;;;;;;;3.83;1.88;;;;;;;12.31;100.00;98820.91;4177317;28;20110;-72
2023/06/27 03:19:20;;;;;;;3.42;1.95;;;;;;;12.34;100.00;98829.28;4172698;28;20080;-72
2023/06/27 03:21:20;;;;;;;3.72;1.67;;;;;;;12.40;100.00;98826.94;4175045;28;20111;-72
2023/06/27 03:23:20;;;;;;;4.13;2.33;;;;;;;12.42;100.00;98821.84;4187875;28;20388;-72
2023/06/27 03:25:21;;;;;;;2.85;1.83;;;;;;;12.41;100.00;98822.19;4184520;28;20264;-72
2023/06/27 03:27:23;;;;;;;4.03;2.15;;;;;;;12.39;100.00;98825.34;4185956;28;20404;-72
2023/06/27 03:29:23;;;;;;;;;;;;;;;12.46;100.00;98824.63;4187196;28;20037;-72
2023/06/27 03:31:24;;;;;;;4.57;1.90;;;;;;;12.50;100.00;98831.81;4174233;28;20265;-72
2023/06/27 03:33:24;;;;;;;2.17;1.60;;;;;;;12.45;100.00;98823.84;4177268;28;20280;-72
2023/06/27 03:35:24;;;;;;;7.05;1.63;;;;;;;12.45;100.00;98823.03;4175731;28;20115;-72
2023/06/27 03:37:26;;;;;;;2.10;1.65;;;;;;;12.46;100.00;98821.84;4175385;28;20045;-72
2023/06/27 03:39:26;;;;;;;2.33;1.80;;;;;;;12.49;100.00;98829.41;4187462;28;20073;-72
2023/06/27 03:41:26;;;;;;;2.40;1.80;;;;;;;12.41;100.00;98820.22;4180809;28;20079;-72
2023/06/27 03:43:27;;;;;;;2.97;1.63;;;;;;;12.42;100.00;98837.69;4186635;28;20202;-72
2023/06/27 03:45:28;;;;;;;4.38;1.70;;;;;;;12.35;100.00;98830.09;4182003;28;20116;-72
2023/06/27 03:47:32;;;;;;;2.78;1.70;;;;;;;12.34;100.00;98834.03;4172531;28;20081;-72
2023/06/27 03:49:32;;;;;;;3.72;1.63;;;;;;;12.36;100.00;98835.25;4170313;28;20374;-72
2023/06/27 03:51:33;;;;;;;5.07;1.70;;;;;;;12.34;100.00;98825.72;4172067;28;20374;-72
2023/06/27 03:53:33;;;;;;;4.75;2.13;;;;;;;12.30;100.00;98834.00;4170574;28;20071;-72
2023/06/27 03:55:34;;;;;;;4.18;2.00;;;;;;;12.27;100.00;98843.09;4172361;28;20071;-72
2023/06/27 03:57:34;;;;;;;4.38;1.90;;;;;;;12.26;100.00;98843.47;4183044;28;20045;-72
2023/06/27 03:59:35;;;;;;;3.28;1.73;;;;;;;12.22;100.00;98846.19;4176143;28;20041;-72
2023/06/27 04:01:35;;;;;;;6.03;1.90;;;;;;;12.22;100.00;98846.19;4185579;28;20044;-72
2023/06/27 04:03:35;;;;;;;3.00;1.77;;;;;;;12.23;100.00;98836.69;4189091;28;20069;-72
2023/06/27 04:05:35;;;;;;;3.65;1.83;;;;;;;12.29;100.00;98837.16;4179015;28;20459;-72
2023/06/27 04:07:36;;;;;;;7.28;2.25;;;;;;;12.40;100.00;98849.16;4178761;28;20068;-72
2023/06/27 04:09:36;;;;;;;4.32;2.10;;;;;;;12.42;100.00;98852.34;4186462;28;20072;-72
2023/06/27 04:11:36;;;;;;;3.83;1.83;;;;;;;12.49;100.00;98849.63;4175576;28;20220;-72
2023/06/27 04:13:37;;;;;;;4.00;2.15;;;;;;;12.55;100.00;98850.09;4174215;28;20040;-72
2023/06/27 04:15:39;;;;;;;5.05;2.08;;;;;;;12.65;100.00;98846.59;4181070;28;20044;-72
2023/06/27 04:17:40;;;;;;;5.50;2.10;;;;;;;12.69;100.00;98853.00;4189294;28;20159;-72
2023/06/27 04:19:40;;;;;;;2.92;1.83;;;;;;;12.78;100.00;98855.47;4190765;28;20124;-72
2023/06/27 04:21:40;;;;;;;3.70;1.85;;;;;;;12.88;100.00;98861.09;4188789;28;20048;-72
2023/06/27 04:23:41;;;;;;;2.60;1.60;;;;;;;12.82;100.00;98848.72;4174601;28;20049;-72
2023/06/27 04:25:44;;;;;;;2.78;1.77;;;;;;;12.85;100.00;98861.06;4177018;28;20060;-72
2023/06/27 04:27:44;;;;;;;3.67;2.00;;;;;;;12.81;100.00;98851.91;4178599;28;20083;-72
2023/06/27 04:29:45;;;;;;;3.47;1.80;;;;;;;12.86;100.00;98859.88;4189901;28;20040;-72
2023/06/27 04:31:45;;;;;;;2.47;1.83;;;;;;;12.83;100.00;98852.34;4189513;28;20049;-72
2023/06/27 04:33:47;;;;;;;3.55;1.90;;;;;;;12.83;100.00;98857.88;4175651;28;20055;-72
2023/06/27 04:35:47;;;;;;;4.88;1.90;;;;;;;12.81;100.00;98852.69;4177641;28;20369;-72
2023/06/27 04:37:47;;;;;;;3.65;2.10;;;;;;;12.76;100.00;98858.63;4188873;28;20037;-72
2023/06/27 04:39:48;;;;;;;2.28;1.88;;;;;;;12.81;100.00;98852.69;4189460;28;20036;-72
2023/06/27 04:41:48;;;;;;;4.03;1.95;;;;;;;12.85;100.00;98859.09;4190130;28;20481;-72
2023/06/27 04:43:48;;;;;;;3.83;1.90;;;;;;;12.85;100.00;98852.75;4184269;28;20041;-72
2023/06/27 04:45:48;;;;;;;4.40;1.95;;;;;;;12.89;100.00;98854.34;4182044;28;20489;-72
2023/06/27 04:47:49;;;;;;;3.90;1.73;;;;;;;12.93;100.00;98860.75;4185072;28;20200;-73
2023/06/27 04:49:49;;;;;;;5.80;2.10;;;;;;;13.01;100.00;98858.03;4174779;28;20084;-72
2023/06/27 04:51:49;;;;;;;4.63;1.83;;;;;;;13.06;100.00;98866.78;4181771;28;20049;-72
2023/06/27 04:53:50;;;;;;;4.30;1.90;;;;;;;13.12;100.00;98870.81;4182190;28;20047;-72
2023/06/27 04:55:53;;;;;;;3.58;1.63;;;;;;;13.14;100.00;98873.19;4188156;28;20589;-72
2023/06/27 04:57:53;;;;;;;3.58;1.75;;;;;;;13.18;100.00;98869.28;4183072;28;20052;-72
2023/06/27 04:59:53;;;;;;;4.90;2.22;;;;;;;13.24;100.00;98863.38;4175490;28;20362;-72
2023/06/27 05:01:54;;;;;;;5.30;2.03;;;;;;;13.26;100.00;98869.34;4183717;28;20052;-72
2023/06/27 05:04:03;;;;;;;3.15;2.05;;;;;;;13.37;100.00;98867.44;4187437;28;20032;-72
2023/06/27 05:06:05;;;;;;;4.05;1.98;;;;;;;13.45;100.00;98866.28;4105843;28;20056;-73
2023/06/27 05:08:05;;;;;;;3.78;2.10;;;;;;;13.55;100.00;98878.66;4185699;28;20411;-72
2023/06/27 05:10:06;;;;;;;6.63;2.00;;;;;;;13.63;100.00;98869.19;4189295;28;20068;-72
2023/06/27 05:12:07;;;;;;;5.40;2.22;;;;;;;13.81;100.00;98866.47;4187522;28;20071;-73
2023/06/27 05:14:07;;;;;;;4.18;1.70;;;;;;;13.99;100.00;98879.31;4179718;28;20052;-72
2023/06/27 05:16:08;;;;;;;3.28;1.90;;;;;;;14.04;100.00;98869.78;4174473;28;20103;-72
2023/06/27 05:18:08;;;;;;;2.42;1.80;;;;;;;14.16;100.00;98871.41;4174564;28;20025;-72
2023/06/27 05:20:10;;;;;;;5.68;2.00;;;;;;;14.14;100.00;98865.44;4174473;28;20028;-73
2023/06/27 05:22:10;;;;;;;3.67;2.00;;;;;;;14.18;100.00;98867.03;4181112;28;20110;-72
2023/06/27 05:24:10;;;;;;;2.42;1.77;;;;;;;14.19;100.00;98871.41;4177778;28;20028;-73
2023/06/27 05:26:11;;;;;;;5.43;2.25;;;;;;;14.16;100.00;98872.22;4189681;28;20024;-72
2023/06/27 05:28:11;;;;;;;3.80;2.22;;;;;;;14.27;100.00;98872.22;4181332;28;20411;-72
2023/06/27 05:30:12;;;;;;;6.50;2.22;;;;;;;14.34;100.00;98872.25;4182630;28;20135;-72
2023/06/27 05:32:12;;;;;;;5.15;2.10;;;;;;;14.39;100.00;98866.28;4183589;28;20632;-73
2023/06/27 05:34:13;;;;;;;6.10;1.73;;;;;;;14.50;100.00;98861.59;4172796;28;20089;-72
2023/06/27 05:36:13;;;;;;;6.75;2.10;;;;;;;14.63;100.00;98866.78;4175348;28;20453;-72
2023/06/27 05:38:13;;;;;;;8.73;2.30;;;;;;;14.69;100.00;98868.78;4189113;28;20029;-72
2023/06/27 05:40:14;;;;;;;4.43;1.80;;;;;;;14.75;100.00;98875.56;4188734;28;20074;-72
2023/06/27 05:42:14;;;;;;;5.40;2.13;;;;;;;14.85;100.00;98871.19;4186358;28;20032;-72
2023/06/27 05:44:14;;;;;;;3.13;1.80;;;;;;;14.81;98.03;98873.16;4186190;28;20038;-72
2023/06/27 05:46:15;;;;;;;3.42;1.65;;;;;;;14.91;98.41;98871.59;4177024;28;20021;-73
2023/06/27 05:48:15;;;;;;;6.95;2.05;;;;;;;14.93;96.83;98864.41;4173521;28;20048;-72
2023/06/27 05:50:16;;;;;;;7.43;2.10;;;;;;;15.03;97.38;98877.53;4174113;28;20890;-72
2023/06/27 05:52:16;;;;;;;3.05;1.63;;;;;;;15.13;97.64;98868.38;4188834;28;20035;-72
2023/06/27 05:54:16;;;;;;;5.32;1.77;;;;;;;15.28;96.63;98866.38;4173673;28;20055;-72
2023/06/27 05:56:16;;;;;;;5.63;1.88;;;;;;;15.42;95.56;98854.41;4173653;28;20043;-73
2023/06/27 05:58:17;;;;;;;3.05;1.50;;;;;;;15.60;91.63;98865.53;4173658;28;20128;-72
2023/06/27 06:00:17;;;;;;;2.88;1.80;;;;;;;15.66;92.70;98859.19;4173632;28;20060;-72
2023/06/27 06:02:18;;;;;;;3.95;1.80;;;;;;;15.81;93.43;98867.50;4182363;28;20362;-72
2023/06/27 06:04:19;;;;;;;2.80;1.70;;;;;;;15.91;91.46;98870.25;4188335;28;20161;-73
2023/06/27 06:06:20;;;;;;;5.57;1.80;;;;;;;15.96;90.14;98869.03;4185612;28;20058;-72
2023/06/27 06:08:20;;;;;;;5.53;2.00;;;;;;;16.06;91.16;98871.00;4173654;28;20142;-73
2023/06/27 06:10:21;;;;;;;2.50;1.50;;;;;;;16.16;91.65;98877.72;4173332;28;20077;-72
2023/06/27 06:12:22;;;;;;;3.70;1.70;;;;;;;16.08;90.79;98878.97;4172933;28;20252;-72
2023/06/27 06:14:22;;;;;;;5.65;1.88;;;;;;;16.17;89.21;98868.16;4173350;28;20524;-72
2023/06/27 06:16:24;;;;;;;3.38;1.65;;;;;;;16.24;89.58;98876.50;4173192;28;20045;-72
2023/06/27 06:18:24;;;;;;;2.58;1.60;;;;;;;16.32;89.38;98883.63;4188023;28;20064;-72
2023/06/27 06:20:26;;;;;;;2.15;1.70;;;;;;;16.26;88.53;98877.66;4187856;28;20491;-72
2023/06/27 06:22:26;;;;;;;5.13;1.97;;;;;;;16.09;87.96;98883.34;4180839;28;20191;-72
2023/06/27 06:24:27;;;;;;;6.68;1.92;;;;;;;16.18;87.75;98876.13;4186845;28;20478;-72
2023/06/27 06:26:27;;;;;;;3.90;1.60;;;;;;;16.12;86.47;98883.31;4188059;28;20063;-72
2023/06/27 06:28:28;;;;;;;6.20;1.60;;;;;;;16.02;86.70;98881.38;4188176;28;20417;-72
2023/06/27 06:30:28;;;;;;;6.72;1.92;;;;;;;15.95;86.86;98879.38;4187712;28;20043;-72
2023/06/27 06:32:28;;;;;;;3.35;1.83;;;;;;;15.85;88.87;98880.22;4188547;28;20067;-73
2023/06/27 06:34:29;;;;;;;2.30;1.50;;;;;;;15.80;88.03;98882.63;4187663;28;20072;-72
2023/06/27 06:36:29;;;;;;;4.90;1.92;;;;;;;15.94;88.12;98885.38;4184839;28;20045;-73
2023/06/27 06:38:29;;;;;;;2.55;1.65;;;;;;;15.97;88.59;98878.97;4188094;28;20037;-72
2023/06/27 06:40:30;;;;;;;2.47;1.42;;;;;;;15.89;86.15;98875.44;4188601;28;20051;-72
2023/06/27 06:42:30;;;;;;;2.58;1.60;;;;;;;15.87;85.22;98883.41;4186870;28;20044;-72
2023/06/27 06:44:30;;;;;;;4.32;2.00;;;;;;;16.04;87.50;98883.75;4187196;28;20415;-72
2023/06/27 06:46:31;;;;;;;2.83;1.52;;;;;;;16.06;87.28;98876.59;4186267;28;20041;-72
2023/06/27 06:48:31;;;;;;;4.10;1.65;;;;;;;16.07;85.64;98880.16;4186593;28;20179;-72
2023/06/27 06:50:32;;;;;;;5.03;1.48;;;;;;;16.03;86.20;98880.16;4184590;28;20048;-72
2023/06/27 06:52:32;;;;;;;4.32;2.17;;;;;;;15.97;86.89;98881.78;4172417;28;20384;-72
2023/06/27 06:54:32;;;;;;;3.70;1.42;;;;;;;15.90;87.05;98881.81;4172580;28;20049;-73
2023/06/27 06:56:33;;;;;;;3.17;1.58;;;;;;;15.98;87.59;98884.19;4173751;28;20495;-72
2023/06/27 06:58:33;;;;;;;3.55;1.50;;;;;;;15.98;84.81;98888.97;4177175;28;20049;-72
2023/06/27 07:00:34;;;;;;;3.00;1.48;;;;;;;15.96;85.25;98882.97;4188771;28;20033;-72
2023/06/27 07:02:34;;;;;;;4.82;1.63;;;;;;;15.97;85.73;98881.78;4186608;28;20049;-72
2023/06/27 07:04:34;;;;;;;3.10;1.35;;;;;;;16.07;86.61;98885.75;4187943;28;20045;-72
2023/06/27 07:06:35;;;;;;;16.40;2.55;;;;;;;16.06;84.34;98884.97;4181649;28;20064;-72
2023/06/27 07:08:35;;;;;;;4.88;1.55;;;;;;;16.10;83.65;98891.31;4175259;28;20560;-72
2023/06/27 07:10:36;;;;;;;2.95;1.60;;;;;;;16.22;84.49;98881.69;4173258;28;20041;-72
2023/06/27 07:12:37;;;;;;;5.95;1.80;;;;;;;16.36;83.49;98878.03;4172439;28;20045;-73
2023/06/27 07:14:37;;;;;;;3.95;1.70;;;;;;;16.49;84.78;98873.56;4172992;28;20534;-73
2023/06/27 07:16:37;;;;;;;4.35;1.80;;;;;;;16.56;84.14;98870.72;4172886;28;20041;-72
2023/06/27 07:18:38;;;;;;;3.55;1.65;;;;;;;16.56;79.70;98871.53;4173389;28;20380;-73
2023/06/27 07:20:38;;;;;;;3.55;1.60;;;;;;;16.58;78.13;98882.28;4173073;28;20373;-72
2023/06/27 07:22:38;;;;;;;5.75;1.45;;;;;;;16.52;78.56;98881.91;4171861;28;20289;-72
2023/06/27 07:24:39;;;;;;;9.05;1.95;;;;;;;16.54;78.53;98873.13;4179588;28;20242;-73
2023/06/27 07:26:39;;;;;;;1.80;1.30;;;;;;;16.65;79.20;98876.66;4172825;28;20118;-72
2023/06/27 07:28:39;;;;;;;2.72;1.20;;;;;;;16.50;78.85;98889.13;4172912;28;20115;-73
2023/06/27 07:30:45;;;;;;;3.97;1.60;;;;;;;16.39;78.99;98872.44;4173054;28;20379;-73
2023/06/27 07:32:45;;;;;;;2.83;1.50;;;;;;;16.24;80.25;98877.28;4171673;28;20544;-72
2023/06/27 07:34:45;;;;;;;3.78;1.95;;;;;;;16.42;83.85;98868.03;4172930;28;20068;-73
2023/06/27 07:36:47;;;;;;;4.55;1.60;;;;;;;16.59;82.02;98872.69;4172959;28;20075;-72
2023/06/27 07:38:47;;;;;;;5.10;1.60;;;;;;;16.69;82.55;98855.09;4175464;28;20052;-72
2023/06/27 07:40:48;;;;;;;3.65;1.65;;;;;;;16.67;78.43;98863.06;4176251;28;20483;-72
2023/06/27 07:42:48;;;;;;;6.40;2.05;;;;;;;16.63;79.09;98867.06;4175308;28;20045;-72
2023/06/27 07:44:48;;;;;;;3.03;1.50;;;;;;;16.75;78.73;98859.06;4175731;28;20522;-72
2023/06/27 07:46:49;;;;;;;3.72;1.48;;;;;;;16.84;79.18;98864.97;4190541;28;20173;-73
2023/06/27 07:48:49;;;;;;;3.08;1.33;;;;;;;16.89;78.39;98860.97;4190692;28;20130;-73
2023/06/27 07:50:49;;;;;;;4.65;1.48;;;;;;;16.88;77.95;98855.75;4176550;28;20053;-72
2023/06/27 07:52:50;;;;;;;4.88;1.58;;;;;;;17.04;81.68;98859.59;4190490;28;20052;-73
2023/06/27 07:54:50;;;;;;;2.33;1.55;;;;;;;17.13;78.71;98859.16;4190239;28;20111;-72
2023/06/27 07:56:52;;;;;;;2.20;1.40;;;;;;;17.29;77.86;98856.59;4191255;28;20477;-73
2023/06/27 07:58:52;;;;;;;2.00;1.60;;;;;;;17.15;77.68;98848.34;4185075;28;20277;-72
2023/06/27 08:00:54;;;;;;;1.70;1.15;;;;;;;17.35;80.22;98857.75;4185734;28;20282;-73
2023/06/27 08:02:54;;;;;;;3.50;1.40;;;;;;;17.45;78.76;98852.44;4190269;28;20051;-73
2023/06/27 08:04:54;;;;;;;3.17;1.40;;;;;;;17.53;79.39;98843.56;4176431;28;20260;-73
2023/06/27 08:06:55;;;;;;;5.13;1.65;;;;;;;17.48;78.37;98849.63;4175653;28;20072;-72
2023/06/27 08:08:55;;;;;;;3.03;1.50;;;;;;;17.53;78.73;98842.78;4181045;28;20125;-73
2023/06/27 08:10:56;;;;;;;2.75;1.52;;;;;;;17.57;79.32;98843.53;4175574;28;20124;-73
2023/06/27 08:12:56;;;;;;;3.53;1.85;;;;;;;17.52;78.06;98839.19;4184561;28;20040;-73
2023/06/27 08:14:56;;;;;;;8.32;1.80;;;;;;;17.75;79.05;98835.78;4179977;28;20045;-72
2023/06/27 08:16:57;;;;;;;3.22;1.48;;;;;;;17.85;76.90;98834.84;4189747;28;20048;-72
2023/06/27 08:18:57;;;;;;;3.20;1.50;;;;;;;17.76;77.30;98831.75;4175911;28;20033;-73
2023/06/27 08:20:57;;;;;;;3.83;1.63;;;;;;;17.56;78.17;98836.38;4175205;28;20435;-73
2023/06/27 08:22:57;;;;;;;3.88;1.67;;;;;;;17.46;77.11;98837.25;4174714;28;20056;-73
2023/06/27 08:24:58;;;;;;;4.38;1.30;;;;;;;17.54;77.31;98838.75;4175024;28;20045;-73
2023/06/27 08:26:58;;;;;;;5.00;1.90;;;;;;;17.76;77.81;98828.97;4175582;28;20151;-73
2023/06/27 08:28:59;;;;;;;5.95;1.90;;;;;;;18.00;78.94;98813.06;4180709;28;20060;-73
2023/06/27 08:30:59;;;;;;;6.75;1.95;;;;;;;18.34;80.10;98817.81;4175230;28;20099;-73
2023/06/27 08:32:59;;;;;;;2.72;1.60;;;;;;;18.43;76.43;98821.66;4174703;28;20076;-72
2023/06/27 08:35:01;;;;;;;3.75;1.67;;;;;;;18.23;74.94;98826.38;4174802;28;20048;-73
2023/06/27 08:37:01;;;;;;;3.67;1.60;;;;;;;18.38;74.89;98818.56;4175240;28;20059;-73
2023/06/27 08:39:02;;;;;;;2.83;1.55;;;;;;;18.32;75.40;98818.25;4175101;28;20110;-73
2023/06/27 08:41:03;;;;;;;2.63;1.35;;;;;;;18.06;76.73;98816.22;4175286;28;20087;-73
2023/06/27 08:43:05;;;;;;;3.88;1.65;;;;;;;18.17;77.19;98814.84;4174259;28;20041;-73
2023/06/27 08:45:06;;;;;;;2.83;1.60;;;;;;;18.31;75.57;98811.06;4175366;28;20045;-73
2023/06/27 08:47:08;;;;;;;6.63;1.70;;;;;;;18.37;73.66;98800.97;4175048;28;20114;-73
2023/06/27 08:49:13;;;;;;;4.75;1.60;;;;;;;18.38;74.12;98801.75;4176528;28;20037;-73
2023/06/27 08:51:18;;;;;;;4.72;1.80;;;;;;;18.37;72.59;98797.34;4187272;28;20141;-73
2023/06/27 08:53:21;;;;;;;3.50;1.60;;;;;;;18.46;70.74;98787.22;4174031;28;20390;-73
2023/06/27 08:55:35;;;;;;;2.80;1.73;;;;;;;18.70;72.63;98792.88;4174666;28;20047;-73
2023/06/27 08:57:37;;;;;;;3.55;2.00;;;;;;;18.79;69.50;98791.13;4174884;28;20416;-73
2023/06/27 08:59:41;;;;;;;4.60;1.70;;;;;;;18.62;68.74;98800.59;4174566;28;20464;-73
2023/06/27 09:01:41;;;;;;;3.25;1.70;;;;;;;18.60;69.11;98802.22;4174680;28;20052;-72
2023/06/27 09:03:41;;;;;;;5.68;1.88;;;;;;;18.61;69.44;98815.00;4174036;28;20270;-72
2023/06/27 09:05:42;;;;;;;3.17;1.63;;;;;;;18.70;69.95;98787.25;4174254;28;20040;-72
2023/06/27 09:07:43;;;;;;;6.13;3.63;;;;;;;18.78;70.08;98783.13;4186659;28;20509;-72
2023/06/27 09:09:44;;;;;;;6.53;1.75;;;;;;;18.98;69.05;98800.81;4188772;28;20127;-72
2023/06/27 09:11:46;;;;;;;5.53;1.70;;;;;;;19.07;69.09;98787.03;4183119;28;20041;-73
2023/06/27 09:13:47;;;;;;;6.77;2.53;;;;;;;19.30;70.35;98791.84;4173607;28;20052;-73
2023/06/27 09:15:47;;;;;;;4.57;1.67;;;;;;;19.33;68.53;98798.59;4174264;28;20738;-73
2023/06/27 09:17:47;;;;;;;3.53;2.10;;;;;;;19.18;69.94;98800.06;4174162;28;20427;-72
2023/06/27 09:19:48;;;;;;;4.32;1.90;;;;;;;19.21;69.01;98785.22;4174064;28;20045;-73
2023/06/27 09:21:48;;;;;;;5.75;1.80;;;;;;;19.12;68.76;98788.56;4174213;28;20052;-73
2023/06/27 09:23:49;;;;;;;2.70;1.73;;;;;;;19.14;66.69;98780.50;4173364;28;20071;-73
2023/06/27 09:26:12;;;;;;;6.93;1.88;;;;;;;19.22;67.07;98778.38;4174514;28;20041;-73
2023/06/27 09:28:17;;;;;;;3.47;1.70;;;;;;;19.25;66.35;98775.47;4174229;28;20437;-73